sensor_id;sensor_type;location;lat;lon;timestamp;P1;durP1;ratioP1;P2;durP2;ratioP2
39970;SDS011;35425;51.142;17.178;2023-02-28T00:00:18;9.27;;;6.20;;
39970;SDS011;35425;51.142;17.178;2023-02-28T00:02:45;8.88;;;6.43;;
39970;SDS011;35425;51.142;17.178;2023-02-28T00:05:13;7.57;;;6.03;;
39970;SDS011;35425;51.142;17.178;2023-02-28T00:07:39;7.50;;;5.97;;
39970;SDS011;35425;51.142;17.178;2023-02-28T00:10:07;9.32;;;6.40;;
39970;SDS011;35425;51.142;17.178;2023-02-28T00:12:34;7.95;;;6.65;;
39970;SDS011;35425;51.142;17.178;2023-02-28T00:15:01;8.40;;;6.20;;
39970;SDS011;35425;51.142;17.178;2023-02-28T00:17:28;8.57;;;6.07;;
39970;SDS011;35425;51.142;17.178;2023-02-28T00:19:54;8.70;;;6.45;;
39970;SDS011;35425;51.142;17.178;2023-02-28T00:22:21;8.13;;;6.13;;
39970;SDS011;35425;51.142;17.178;2023-02-28T00:24:47;8.18;;;6.40;;
39970;SDS011;35425;51.142;17.178;2023-02-28T00:27:14;8.07;;;6.32;;
39970;SDS011;35425;51.142;17.178;2023-02-28T00:29:41;7.40;;;5.90;;
39970;SDS011;35425;51.142;17.178;2023-02-28T00:32:07;8.68;;;6.03;;
39970;SDS011;35425;51.142;17.178;2023-02-28T00:34:33;8.02;;;5.93;;
39970;SDS011;35425;51.142;17.178;2023-02-28T00:37:04;9.05;;;6.50;;
39970;SDS011;35425;51.142;17.178;2023-02-28T00:39:31;8.07;;;6.15;;
39970;SDS011;35425;51.142;17.178;2023-02-28T00:41:59;8.63;;;6.57;;
39970;SDS011;35425;51.142;17.178;2023-02-28T00:44:25;9.52;;;7.00;;
39970;SDS011;35425;51.142;17.178;2023-02-28T00:46:52;7.75;;;6.18;;
39970;SDS011;35425;51.142;17.178;2023-02-28T00:49:20;8.18;;;5.93;;
39970;SDS011;35425;51.142;17.178;2023-02-28T00:51:46;8.88;;;6.57;;
39970;SDS011;35425;51.142;17.178;2023-02-28T00:54:13;8.70;;;5.82;;
39970;SDS011;35425;51.142;17.178;2023-02-28T00:56:39;8.85;;;6.65;;
39970;SDS011;35425;51.142;17.178;2023-02-28T00:59:06;8.13;;;5.85;;
39970;SDS011;35425;51.142;17.178;2023-02-28T01:01:32;8.57;;;6.03;;
39970;SDS011;35425;51.142;17.178;2023-02-28T01:03:59;7.00;;;5.30;;
39970;SDS011;35425;51.142;17.178;2023-02-28T01:06:25;7.72;;;5.93;;
39970;SDS011;35425;51.142;17.178;2023-02-28T01:08:52;7.90;;;6.10;;
39970;SDS011;35425;51.142;17.178;2023-02-28T01:11:18;7.88;;;5.95;;
39970;SDS011;35425;51.142;17.178;2023-02-28T01:13:45;8.77;;;5.78;;
39970;SDS011;35425;51.142;17.178;2023-02-28T01:16:12;7.57;;;5.78;;
39970;SDS011;35425;51.142;17.178;2023-02-28T01:18:39;7.13;;;5.60;;
39970;SDS011;35425;51.142;17.178;2023-02-28T01:21:13;8.48;;;6.55;;
39970;SDS011;35425;51.142;17.178;2023-02-28T01:23:39;8.60;;;5.88;;
39970;SDS011;35425;51.142;17.178;2023-02-28T01:26:13;7.57;;;5.70;;
39970;SDS011;35425;51.142;17.178;2023-02-28T01:28:40;8.52;;;5.82;;
39970;SDS011;35425;51.142;17.178;2023-02-28T01:31:07;7.10;;;5.97;;
39970;SDS011;35425;51.142;17.178;2023-02-28T01:33:34;8.20;;;5.82;;
39970;SDS011;35425;51.142;17.178;2023-02-28T01:36:02;6.60;;;5.65;;
39970;SDS011;35425;51.142;17.178;2023-02-28T01:38:29;9.10;;;6.15;;
39970;SDS011;35425;51.142;17.178;2023-02-28T01:40:55;8.30;;;5.80;;
39970;SDS011;35425;51.142;17.178;2023-02-28T01:43:26;8.73;;;6.25;;
39970;SDS011;35425;51.142;17.178;2023-02-28T01:45:53;8.20;;;5.93;;
39970;SDS011;35425;51.142;17.178;2023-02-28T01:48:31;6.70;;;5.40;;
39970;SDS011;35425;51.142;17.178;2023-02-28T01:51:00;8.38;;;5.75;;
39970;SDS011;35425;51.142;17.178;2023-02-28T01:53:30;7.50;;;5.85;;
39970;SDS011;35425;51.142;17.178;2023-02-28T01:55:57;7.32;;;5.43;;
39970;SDS011;35425;51.142;17.178;2023-02-28T01:58:24;8.25;;;6.05;;
39970;SDS011;35425;51.142;17.178;2023-02-28T02:00:50;7.10;;;5.43;;
39970;SDS011;35425;51.142;17.178;2023-02-28T02:03:17;7.38;;;5.80;;
39970;SDS011;35425;51.142;17.178;2023-02-28T02:05:45;7.45;;;5.72;;
39970;SDS011;35425;51.142;17.178;2023-02-28T02:08:19;6.80;;;5.55;;
39970;SDS011;35425;51.142;17.178;2023-02-28T02:10:46;7.70;;;5.32;;
39970;SDS011;35425;51.142;17.178;2023-02-28T02:21:22;8.82;;;5.90;;
39970;SDS011;35425;51.142;17.178;2023-02-28T02:26:41;6.97;;;5.57;;
39970;SDS011;35425;51.142;17.178;2023-02-28T02:29:16;7.53;;;6.18;;
39970;SDS011;35425;51.142;17.178;2023-02-28T02:42:11;8.18;;;5.88;;
39970;SDS011;35425;51.142;17.178;2023-02-28T02:44:41;7.47;;;5.72;;
39970;SDS011;35425;51.142;17.178;2023-02-28T02:47:11;7.55;;;5.82;;
39970;SDS011;35425;51.142;17.178;2023-02-28T02:49:40;10.02;;;6.40;;
39970;SDS011;35425;51.142;17.178;2023-02-28T02:52:09;6.95;;;5.40;;
39970;SDS011;35425;51.142;17.178;2023-02-28T02:54:37;8.05;;;6.10;;
39970;SDS011;35425;51.142;17.178;2023-02-28T02:57:07;8.00;;;5.97;;
39970;SDS011;35425;51.142;17.178;2023-02-28T02:59:35;7.60;;;5.80;;
39970;SDS011;35425;51.142;17.178;2023-02-28T03:02:03;7.45;;;5.60;;
39970;SDS011;35425;51.142;17.178;2023-02-28T03:04:32;6.53;;;5.40;;
39970;SDS011;35425;51.142;17.178;2023-02-28T03:06:59;8.00;;;5.93;;
39970;SDS011;35425;51.142;17.178;2023-02-28T03:09:26;7.32;;;5.68;;
39970;SDS011;35425;51.142;17.178;2023-02-28T03:11:53;6.60;;;5.30;;
39970;SDS011;35425;51.142;17.178;2023-02-28T03:17:16;7.88;;;5.97;;
39970;SDS011;35425;51.142;17.178;2023-02-28T03:25:04;8.45;;;5.95;;
39970;SDS011;35425;51.142;17.178;2023-02-28T03:27:44;7.38;;;5.90;;
39970;SDS011;35425;51.142;17.178;2023-02-28T03:30:24;7.70;;;5.75;;
39970;SDS011;35425;51.142;17.178;2023-02-28T03:32:53;7.07;;;5.32;;
39970;SDS011;35425;51.142;17.178;2023-02-28T03:35:21;6.55;;;5.20;;
39970;SDS011;35425;51.142;17.178;2023-02-28T03:38:01;7.65;;;5.70;;
39970;SDS011;35425;51.142;17.178;2023-02-28T03:40:31;8.52;;;5.28;;
39970;SDS011;35425;51.142;17.178;2023-02-28T03:43:01;7.15;;;5.35;;
39970;SDS011;35425;51.142;17.178;2023-02-28T03:45:29;5.47;;;4.85;;
39970;SDS011;35425;51.142;17.178;2023-02-28T03:48:03;8.30;;;5.88;;
39970;SDS011;35425;51.142;17.178;2023-02-28T03:50:37;6.18;;;5.10;;
39970;SDS011;35425;51.142;17.178;2023-02-28T03:55:33;6.45;;;4.72;;
39970;SDS011;35425;51.142;17.178;2023-02-28T04:00:40;7.80;;;5.47;;
39970;SDS011;35425;51.142;17.178;2023-02-28T04:03:08;6.90;;;5.13;;
39970;SDS011;35425;51.142;17.178;2023-02-28T04:05:43;6.28;;;4.82;;
39970;SDS011;35425;51.142;17.178;2023-02-28T04:08:12;6.97;;;5.07;;
39970;SDS011;35425;51.142;17.178;2023-02-28T04:10:39;7.43;;;5.22;;
39970;SDS011;35425;51.142;17.178;2023-02-28T04:13:05;6.22;;;4.95;;
39970;SDS011;35425;51.142;17.178;2023-02-28T04:15:32;6.07;;;4.88;;
39970;SDS011;35425;51.142;17.178;2023-02-28T04:17:58;6.38;;;5.07;;
39970;SDS011;35425;51.142;17.178;2023-02-28T04:20:24;7.00;;;5.25;;
39970;SDS011;35425;51.142;17.178;2023-02-28T04:22:51;6.65;;;4.60;;
39970;SDS011;35425;51.142;17.178;2023-02-28T04:25:17;7.47;;;5.55;;
39970;SDS011;35425;51.142;17.178;2023-02-28T04:27:44;6.93;;;5.03;;
39970;SDS011;35425;51.142;17.178;2023-02-28T04:30:10;6.55;;;4.93;;
39970;SDS011;35425;51.142;17.178;2023-02-28T04:32:37;7.22;;;5.10;;
39970;SDS011;35425;51.142;17.178;2023-02-28T04:35:03;6.28;;;4.88;;
39970;SDS011;35425;51.142;17.178;2023-02-28T04:37:30;6.82;;;5.13;;
39970;SDS011;35425;51.142;17.178;2023-02-28T04:40:01;7.32;;;5.38;;
39970;SDS011;35425;51.142;17.178;2023-02-28T04:42:27;6.47;;;5.00;;
39970;SDS011;35425;51.142;17.178;2023-02-28T04:45:04;6.88;;;5.22;;
39970;SDS011;35425;51.142;17.178;2023-02-28T04:47:30;6.68;;;4.45;;
39970;SDS011;35425;51.142;17.178;2023-02-28T04:49:57;6.53;;;4.78;;
39970;SDS011;35425;51.142;17.178;2023-02-28T04:52:23;6.75;;;4.90;;
39970;SDS011;35425;51.142;17.178;2023-02-28T04:54:50;6.82;;;5.00;;
39970;SDS011;35425;51.142;17.178;2023-02-28T04:57:16;5.65;;;4.28;;
39970;SDS011;35425;51.142;17.178;2023-02-28T04:59:43;5.72;;;4.65;;
39970;SDS011;35425;51.142;17.178;2023-02-28T05:02:10;6.38;;;4.88;;
39970;SDS011;35425;51.142;17.178;2023-02-28T05:04:36;6.28;;;4.88;;
39970;SDS011;35425;51.142;17.178;2023-02-28T05:07:03;6.57;;;5.13;;
39970;SDS011;35425;51.142;17.178;2023-02-28T05:09:29;6.72;;;5.15;;
39970;SDS011;35425;51.142;17.178;2023-02-28T05:11:56;6.30;;;4.88;;
39970;SDS011;35425;51.142;17.178;2023-02-28T05:14:22;5.45;;;4.57;;
39970;SDS011;35425;51.142;17.178;2023-02-28T05:16:49;6.03;;;4.78;;
39970;SDS011;35425;51.142;17.178;2023-02-28T05:19:15;5.88;;;4.57;;
39970;SDS011;35425;51.142;17.178;2023-02-28T05:21:49;6.38;;;4.75;;
39970;SDS011;35425;51.142;17.178;2023-02-28T05:24:16;5.55;;;4.45;;
39970;SDS011;35425;51.142;17.178;2023-02-28T05:26:49;5.38;;;4.53;;
39970;SDS011;35425;51.142;17.178;2023-02-28T05:29:17;5.80;;;4.38;;
39970;SDS011;35425;51.142;17.178;2023-02-28T05:31:44;6.03;;;4.72;;
39970;SDS011;35425;51.142;17.178;2023-02-28T05:34:10;5.47;;;4.38;;
39970;SDS011;35425;51.142;17.178;2023-02-28T05:36:38;5.68;;;4.50;;
39970;SDS011;35425;51.142;17.178;2023-02-28T05:39:06;5.80;;;4.47;;
39970;SDS011;35425;51.142;17.178;2023-02-28T05:41:33;5.32;;;4.55;;
39970;SDS011;35425;51.142;17.178;2023-02-28T05:44:00;5.18;;;3.95;;
39970;SDS011;35425;51.142;17.178;2023-02-28T05:46:26;4.88;;;4.10;;
39970;SDS011;35425;51.142;17.178;2023-02-28T05:48:53;5.45;;;4.50;;
39970;SDS011;35425;51.142;17.178;2023-02-28T05:51:19;5.07;;;4.25;;
39970;SDS011;35425;51.142;17.178;2023-02-28T05:53:46;5.90;;;4.18;;
39970;SDS011;35425;51.142;17.178;2023-02-28T05:56:14;6.10;;;4.47;;
39970;SDS011;35425;51.142;17.178;2023-02-28T05:58:40;5.60;;;4.40;;
39970;SDS011;35425;51.142;17.178;2023-02-28T06:01:23;5.95;;;4.13;;
39970;SDS011;35425;51.142;17.178;2023-02-28T06:03:50;5.60;;;4.40;;
39970;SDS011;35425;51.142;17.178;2023-02-28T06:06:17;5.72;;;4.07;;
39970;SDS011;35425;51.142;17.178;2023-02-28T06:08:43;5.20;;;3.95;;
39970;SDS011;35425;51.142;17.178;2023-02-28T06:11:11;5.80;;;4.05;;
39970;SDS011;35425;51.142;17.178;2023-02-28T06:13:37;5.25;;;4.10;;
39970;SDS011;35425;51.142;17.178;2023-02-28T06:16:04;5.13;;;4.15;;
39970;SDS011;35425;51.142;17.178;2023-02-28T06:18:31;5.82;;;4.07;;
39970;SDS011;35425;51.142;17.178;2023-02-28T06:20:58;5.53;;;4.10;;
39970;SDS011;35425;51.142;17.178;2023-02-28T06:23:24;5.25;;;3.97;;
39970;SDS011;35425;51.142;17.178;2023-02-28T06:25:51;5.07;;;4.00;;
39970;SDS011;35425;51.142;17.178;2023-02-28T06:28:19;5.35;;;4.07;;
39970;SDS011;35425;51.142;17.178;2023-02-28T06:30:45;6.45;;;4.30;;
39970;SDS011;35425;51.142;17.178;2023-02-28T06:33:12;5.35;;;4.18;;
39970;SDS011;35425;51.142;17.178;2023-02-28T06:35:38;5.93;;;4.13;;
39970;SDS011;35425;51.142;17.178;2023-02-28T06:38:05;6.32;;;4.30;;
39970;SDS011;35425;51.142;17.178;2023-02-28T06:40:31;5.15;;;4.13;;
39970;SDS011;35425;51.142;17.178;2023-02-28T06:43:00;5.93;;;4.30;;
39970;SDS011;35425;51.142;17.178;2023-02-28T06:45:26;5.43;;;4.13;;
39970;SDS011;35425;51.142;17.178;2023-02-28T06:47:53;4.80;;;3.97;;
39970;SDS011;35425;51.142;17.178;2023-02-28T06:50:20;5.57;;;4.20;;
39970;SDS011;35425;51.142;17.178;2023-02-28T06:52:46;5.10;;;3.75;;
39970;SDS011;35425;51.142;17.178;2023-02-28T06:55:13;5.18;;;4.45;;
39970;SDS011;35425;51.142;17.178;2023-02-28T06:57:39;5.20;;;4.30;;
39970;SDS011;35425;51.142;17.178;2023-02-28T07:00:07;5.93;;;4.50;;
39970;SDS011;35425;51.142;17.178;2023-02-28T07:02:35;5.47;;;4.47;;
39970;SDS011;35425;51.142;17.178;2023-02-28T07:05:02;4.85;;;3.83;;
39970;SDS011;35425;51.142;17.178;2023-02-28T07:07:28;4.88;;;3.92;;
39970;SDS011;35425;51.142;17.178;2023-02-28T07:09:54;4.90;;;4.30;;
39970;SDS011;35425;51.142;17.178;2023-02-28T07:12:21;5.50;;;4.25;;
39970;SDS011;35425;51.142;17.178;2023-02-28T07:14:47;5.28;;;4.18;;
39970;SDS011;35425;51.142;17.178;2023-02-28T07:17:14;5.93;;;4.13;;
39970;SDS011;35425;51.142;17.178;2023-02-28T07:19:40;5.70;;;4.20;;
39970;SDS011;35425;51.142;17.178;2023-02-28T07:22:07;6.03;;;4.00;;
39970;SDS011;35425;51.142;17.178;2023-02-28T07:24:33;6.28;;;4.03;;
39970;SDS011;35425;51.142;17.178;2023-02-28T07:27:00;4.95;;;3.95;;
39970;SDS011;35425;51.142;17.178;2023-02-28T07:29:27;4.68;;;3.83;;
39970;SDS011;35425;51.142;17.178;2023-02-28T07:31:54;5.95;;;4.18;;
39970;SDS011;35425;51.142;17.178;2023-02-28T07:34:21;5.47;;;3.80;;
39970;SDS011;35425;51.142;17.178;2023-02-28T07:36:47;5.28;;;3.80;;
39970;SDS011;35425;51.142;17.178;2023-02-28T07:39:14;4.93;;;3.70;;
39970;SDS011;35425;51.142;17.178;2023-02-28T07:41:40;3.65;;;3.10;;
39970;SDS011;35425;51.142;17.178;2023-02-28T07:44:10;4.40;;;3.58;;
39970;SDS011;35425;51.142;17.178;2023-02-28T07:46:37;4.70;;;3.42;;
39970;SDS011;35425;51.142;17.178;2023-02-28T07:49:03;4.03;;;3.38;;
39970;SDS011;35425;51.142;17.178;2023-02-28T07:51:30;5.43;;;4.15;;
39970;SDS011;35425;51.142;17.178;2023-02-28T07:53:57;4.95;;;3.72;;
39970;SDS011;35425;51.142;17.178;2023-02-28T07:56:23;4.85;;;3.42;;
39970;SDS011;35425;51.142;17.178;2023-02-28T07:58:50;5.88;;;3.65;;
39970;SDS011;35425;51.142;17.178;2023-02-28T08:01:16;4.13;;;3.20;;
39970;SDS011;35425;51.142;17.178;2023-02-28T08:03:43;3.78;;;3.08;;
39970;SDS011;35425;51.142;17.178;2023-02-28T08:06:15;4.70;;;3.30;;
39970;SDS011;35425;51.142;17.178;2023-02-28T08:08:42;4.55;;;3.00;;
39970;SDS011;35425;51.142;17.178;2023-02-28T08:11:08;4.25;;;3.20;;
39970;SDS011;35425;51.142;17.178;2023-02-28T08:13:35;4.10;;;3.08;;
39970;SDS011;35425;51.142;17.178;2023-02-28T08:16:01;4.00;;;3.00;;
39970;SDS011;35425;51.142;17.178;2023-02-28T08:18:28;3.50;;;2.75;;
39970;SDS011;35425;51.142;17.178;2023-02-28T08:20:55;4.03;;;3.25;;
39970;SDS011;35425;51.142;17.178;2023-02-28T08:23:22;4.18;;;2.88;;
39970;SDS011;35425;51.142;17.178;2023-02-28T08:25:52;3.75;;;2.72;;
39970;SDS011;35425;51.142;17.178;2023-02-28T08:28:19;3.45;;;2.70;;
39970;SDS011;35425;51.142;17.178;2023-02-28T08:30:45;3.92;;;2.83;;
39970;SDS011;35425;51.142;17.178;2023-02-28T08:33:12;4.57;;;3.15;;
39970;SDS011;35425;51.142;17.178;2023-02-28T08:35:38;3.63;;;2.58;;
39970;SDS011;35425;51.142;17.178;2023-02-28T08:38:04;3.92;;;2.60;;
39970;SDS011;35425;51.142;17.178;2023-02-28T08:40:31;2.88;;;2.40;;
39970;SDS011;35425;51.142;17.178;2023-02-28T08:42:57;3.67;;;2.53;;
39970;SDS011;35425;51.142;17.178;2023-02-28T08:45:25;3.58;;;2.53;;
39970;SDS011;35425;51.142;17.178;2023-02-28T08:47:53;2.90;;;2.60;;
39970;SDS011;35425;51.142;17.178;2023-02-28T08:50:20;3.90;;;2.78;;
39970;SDS011;35425;51.142;17.178;2023-02-28T08:52:47;2.58;;;2.35;;
39970;SDS011;35425;51.142;17.178;2023-02-28T08:55:13;3.65;;;2.75;;
39970;SDS011;35425;51.142;17.178;2023-02-28T08:57:40;4.03;;;2.85;;
39970;SDS011;35425;51.142;17.178;2023-02-28T09:00:06;3.88;;;2.55;;
39970;SDS011;35425;51.142;17.178;2023-02-28T09:02:33;3.28;;;2.50;;
39970;SDS011;35425;51.142;17.178;2023-02-28T09:05:00;3.25;;;2.42;;
39970;SDS011;35425;51.142;17.178;2023-02-28T09:07:26;3.28;;;2.75;;
39970;SDS011;35425;51.142;17.178;2023-02-28T09:09:52;3.55;;;2.35;;
39970;SDS011;35425;51.142;17.178;2023-02-28T09:12:24;2.80;;;2.30;;
39970;SDS011;35425;51.142;17.178;2023-02-28T09:14:51;3.50;;;2.50;;
39970;SDS011;35425;51.142;17.178;2023-02-28T09:17:17;3.75;;;2.30;;
39970;SDS011;35425;51.142;17.178;2023-02-28T09:19:44;3.92;;;2.45;;
39970;SDS011;35425;51.142;17.178;2023-02-28T09:22:11;3.25;;;2.35;;
39970;SDS011;35425;51.142;17.178;2023-02-28T09:24:37;3.05;;;2.20;;
39970;SDS011;35425;51.142;17.178;2023-02-28T09:27:06;2.85;;;2.40;;
39970;SDS011;35425;51.142;17.178;2023-02-28T09:29:34;3.45;;;2.45;;
39970;SDS011;35425;51.142;17.178;2023-02-28T09:32:01;2.67;;;2.13;;
39970;SDS011;35425;51.142;17.178;2023-02-28T09:34:28;3.28;;;2.42;;
39970;SDS011;35425;51.142;17.178;2023-02-28T09:36:57;2.92;;;2.42;;
39970;SDS011;35425;51.142;17.178;2023-02-28T09:39:23;2.97;;;2.25;;
39970;SDS011;35425;51.142;17.178;2023-02-28T09:41:52;3.45;;;2.30;;
39970;SDS011;35425;51.142;17.178;2023-02-28T09:44:40;2.38;;;2.10;;
39970;SDS011;35425;51.142;17.178;2023-02-28T09:47:12;2.63;;;2.15;;
39970;SDS011;35425;51.142;17.178;2023-02-28T09:49:43;2.78;;;2.08;;
39970;SDS011;35425;51.142;17.178;2023-02-28T09:52:17;2.25;;;2.00;;
39970;SDS011;35425;51.142;17.178;2023-02-28T09:54:45;2.60;;;2.03;;
39970;SDS011;35425;51.142;17.178;2023-02-28T10:05:00;2.97;;;2.30;;
39970;SDS011;35425;51.142;17.178;2023-02-28T10:10:29;3.00;;;2.38;;
39970;SDS011;35425;51.142;17.178;2023-02-28T10:13:00;1.95;;;1.60;;
39970;SDS011;35425;51.142;17.178;2023-02-28T10:15:29;2.00;;;1.80;;
39970;SDS011;35425;51.142;17.178;2023-02-28T10:17:57;2.92;;;2.00;;
39970;SDS011;35425;51.142;17.178;2023-02-28T10:20:35;2.40;;;1.80;;
39970;SDS011;35425;51.142;17.178;2023-02-28T10:25:44;2.20;;;1.90;;
39970;SDS011;35425;51.142;17.178;2023-02-28T10:28:14;2.85;;;2.17;;
39970;SDS011;35425;51.142;17.178;2023-02-28T10:30:49;2.17;;;1.85;;
39970;SDS011;35425;51.142;17.178;2023-02-28T10:33:29;2.28;;;1.92;;
39970;SDS011;35425;51.142;17.178;2023-02-28T10:35:56;2.88;;;2.10;;
39970;SDS011;35425;51.142;17.178;2023-02-28T10:38:27;2.15;;;1.85;;
39970;SDS011;35425;51.142;17.178;2023-02-28T10:41:10;2.25;;;1.80;;
39970;SDS011;35425;51.142;17.178;2023-02-28T10:43:38;2.10;;;1.90;;
39970;SDS011;35425;51.142;17.178;2023-02-28T10:51:03;3.38;;;2.10;;
39970;SDS011;35425;51.142;17.178;2023-02-28T10:53:35;2.28;;;1.88;;
39970;SDS011;35425;51.142;17.178;2023-02-28T11:01:17;2.63;;;1.95;;
39970;SDS011;35425;51.142;17.178;2023-02-28T11:03:44;2.30;;;1.70;;
39970;SDS011;35425;51.142;17.178;2023-02-28T11:06:19;2.03;;;1.77;;
39970;SDS011;35425;51.142;17.178;2023-02-28T11:08:51;3.33;;;1.80;;
39970;SDS011;35425;51.142;17.178;2023-02-28T11:11:19;2.28;;;1.95;;
39970;SDS011;35425;51.142;17.178;2023-02-28T11:13:46;2.17;;;1.92;;
39970;SDS011;35425;51.142;17.178;2023-02-28T11:16:14;2.80;;;1.98;;
39970;SDS011;35425;51.142;17.178;2023-02-28T11:18:42;2.58;;;1.98;;
39970;SDS011;35425;51.142;17.178;2023-02-28T11:21:09;2.70;;;1.95;;
39970;SDS011;35425;51.142;17.178;2023-02-28T11:23:42;2.80;;;1.90;;
39970;SDS011;35425;51.142;17.178;2023-02-28T11:26:09;2.25;;;1.92;;
39970;SDS011;35425;51.142;17.178;2023-02-28T11:28:39;2.63;;;1.80;;
39970;SDS011;35425;51.142;17.178;2023-02-28T11:36:21;2.40;;;2.00;;
39970;SDS011;35425;51.142;17.178;2023-02-28T11:38:51;2.10;;;1.65;;
39970;SDS011;35425;51.142;17.178;2023-02-28T11:49:02;2.17;;;1.77;;
39970;SDS011;35425;51.142;17.178;2023-02-28T11:51:51;2.10;;;1.90;;
39970;SDS011;35425;51.142;17.178;2023-02-28T11:54:32;2.80;;;2.13;;
39970;SDS011;35425;51.142;17.178;2023-02-28T11:59:47;2.53;;;1.67;;
39970;SDS011;35425;51.142;17.178;2023-02-28T12:05:08;3.72;;;2.45;;
39970;SDS011;35425;51.142;17.178;2023-02-28T12:10:20;2.63;;;2.17;;
39970;SDS011;35425;51.142;17.178;2023-02-28T12:15:54;2.40;;;2.10;;
39970;SDS011;35425;51.142;17.178;2023-02-28T12:18:33;3.55;;;2.80;;
39970;SDS011;35425;51.142;17.178;2023-02-28T12:21:04;3.30;;;2.88;;
39970;SDS011;35425;51.142;17.178;2023-02-28T12:23:43;3.80;;;3.25;;
39970;SDS011;35425;51.142;17.178;2023-02-28T12:28:44;6.32;;;5.72;;
39970;SDS011;35425;51.142;17.178;2023-02-28T12:31:26;6.10;;;4.80;;
39970;SDS011;35425;51.142;17.178;2023-02-28T12:34:06;5.13;;;4.55;;
39970;SDS011;35425;51.142;17.178;2023-02-28T12:36:35;5.85;;;4.70;;
39970;SDS011;35425;51.142;17.178;2023-02-28T12:39:04;5.95;;;4.60;;
39970;SDS011;35425;51.142;17.178;2023-02-28T12:41:36;5.13;;;4.63;;
39970;SDS011;35425;51.142;17.178;2023-02-28T12:44:09;5.78;;;5.03;;
39970;SDS011;35425;51.142;17.178;2023-02-28T12:46:39;5.78;;;5.18;;
39970;SDS011;35425;51.142;17.178;2023-02-28T12:49:15;5.60;;;5.00;;
39970;SDS011;35425;51.142;17.178;2023-02-28T12:51:43;6.55;;;5.40;;
39970;SDS011;35425;51.142;17.178;2023-02-28T12:59:07;6.20;;;5.30;;
39970;SDS011;35425;51.142;17.178;2023-02-28T13:09:29;6.00;;;5.40;;
39970;SDS011;35425;51.142;17.178;2023-02-28T13:11:56;5.78;;;5.15;;
39970;SDS011;35425;51.142;17.178;2023-02-28T13:14:25;6.78;;;4.82;;
39970;SDS011;35425;51.142;17.178;2023-02-28T13:24:54;5.47;;;4.97;;
39970;SDS011;35425;51.142;17.178;2023-02-28T13:29:53;7.30;;;6.10;;
39970;SDS011;35425;51.142;17.178;2023-02-28T13:32:28;6.88;;;6.18;;
39970;SDS011;35425;51.142;17.178;2023-02-28T13:40:48;7.03;;;6.05;;
39970;SDS011;35425;51.142;17.178;2023-02-28T13:42:49;6.88;;;5.55;;
39970;SDS011;35425;51.142;17.178;2023-02-28T13:45:21;7.20;;;6.15;;
39970;SDS011;35425;51.142;17.178;2023-02-28T13:47:51;6.05;;;5.32;;
39970;SDS011;35425;51.142;17.178;2023-02-28T13:50:23;6.15;;;5.55;;
39970;SDS011;35425;51.142;17.178;2023-02-28T14:00:39;8.20;;;6.20;;
39970;SDS011;35425;51.142;17.178;2023-02-28T14:05:39;6.38;;;5.53;;
39970;SDS011;35425;51.142;17.178;2023-02-28T14:08:06;7.68;;;5.85;;
39970;SDS011;35425;51.142;17.178;2023-02-28T14:10:41;5.70;;;5.20;;
39970;SDS011;35425;51.142;17.178;2023-02-28T14:13:36;7.22;;;5.70;;
39970;SDS011;35425;51.142;17.178;2023-02-28T14:16:01;6.68;;;5.60;;
39970;SDS011;35425;51.142;17.178;2023-02-28T14:18:35;6.70;;;5.50;;
39970;SDS011;35425;51.142;17.178;2023-02-28T14:21:08;6.40;;;5.53;;
39970;SDS011;35425;51.142;17.178;2023-02-28T14:32:01;6.78;;;5.53;;
39970;SDS011;35425;51.142;17.178;2023-02-28T14:34:35;5.28;;;4.47;;
39970;SDS011;35425;51.142;17.178;2023-02-28T14:37:02;6.03;;;4.80;;
39970;SDS011;35425;51.142;17.178;2023-02-28T14:39:29;4.82;;;4.10;;
39970;SDS011;35425;51.142;17.178;2023-02-28T14:41:59;5.57;;;4.57;;
39970;SDS011;35425;51.142;17.178;2023-02-28T14:44:30;5.10;;;4.43;;
39970;SDS011;35425;51.142;17.178;2023-02-28T14:46:59;4.40;;;4.00;;
39970;SDS011;35425;51.142;17.178;2023-02-28T14:49:35;4.43;;;4.03;;
39970;SDS011;35425;51.142;17.178;2023-02-28T14:52:06;5.55;;;4.47;;
39970;SDS011;35425;51.142;17.178;2023-02-28T14:54:38;5.03;;;3.97;;
39970;SDS011;35425;51.142;17.178;2023-02-28T14:57:05;4.40;;;3.90;;
39970;SDS011;35425;51.142;17.178;2023-02-28T14:59:35;5.25;;;4.22;;
39970;SDS011;35425;51.142;17.178;2023-02-28T15:04:56;4.90;;;4.25;;
39970;SDS011;35425;51.142;17.178;2023-02-28T15:07:23;5.00;;;4.25;;
39970;SDS011;35425;51.142;17.178;2023-02-28T15:12:40;4.78;;;4.32;;
39970;SDS011;35425;51.142;17.178;2023-02-28T15:15:14;5.75;;;4.50;;
39970;SDS011;35425;51.142;17.178;2023-02-28T15:17:41;4.85;;;4.03;;
39970;SDS011;35425;51.142;17.178;2023-02-28T15:20:11;4.97;;;4.22;;
39970;SDS011;35425;51.142;17.178;2023-02-28T15:22:39;5.32;;;4.57;;
39970;SDS011;35425;51.142;17.178;2023-02-28T15:25:05;4.72;;;4.15;;
39970;SDS011;35425;51.142;17.178;2023-02-28T15:27:44;4.13;;;3.65;;
39970;SDS011;35425;51.142;17.178;2023-02-28T15:30:14;5.00;;;4.15;;
39970;SDS011;35425;51.142;17.178;2023-02-28T15:32:41;4.47;;;3.88;;
39970;SDS011;35425;51.142;17.178;2023-02-28T15:37:47;4.05;;;3.65;;
39970;SDS011;35425;51.142;17.178;2023-02-28T15:42:42;4.95;;;3.85;;
39970;SDS011;35425;51.142;17.178;2023-02-28T15:45:27;4.00;;;3.55;;
39970;SDS011;35425;51.142;17.178;2023-02-28T15:47:53;4.22;;;3.60;;
39970;SDS011;35425;51.142;17.178;2023-02-28T15:50:27;4.45;;;3.67;;
39970;SDS011;35425;51.142;17.178;2023-02-28T15:52:56;4.38;;;3.92;;
39970;SDS011;35425;51.142;17.178;2023-02-28T15:55:23;3.55;;;3.22;;
39970;SDS011;35425;51.142;17.178;2023-02-28T15:57:53;3.88;;;3.47;;
39970;SDS011;35425;51.142;17.178;2023-02-28T16:00:21;4.13;;;3.55;;
39970;SDS011;35425;51.142;17.178;2023-02-28T16:02:48;4.05;;;3.55;;
39970;SDS011;35425;51.142;17.178;2023-02-28T16:05:19;4.50;;;3.65;;
39970;SDS011;35425;51.142;17.178;2023-02-28T16:07:47;3.85;;;3.45;;
39970;SDS011;35425;51.142;17.178;2023-02-28T16:10:15;4.35;;;3.60;;
39970;SDS011;35425;51.142;17.178;2023-02-28T16:12:41;5.22;;;4.10;;
39970;SDS011;35425;51.142;17.178;2023-02-28T16:15:14;4.22;;;3.83;;
39970;SDS011;35425;51.142;17.178;2023-02-28T16:17:43;4.80;;;3.58;;
39970;SDS011;35425;51.142;17.178;2023-02-28T16:20:14;4.35;;;3.95;;
39970;SDS011;35425;51.142;17.178;2023-02-28T16:22:41;4.45;;;4.05;;
39970;SDS011;35425;51.142;17.178;2023-02-28T16:25:11;4.65;;;3.78;;
39970;SDS011;35425;51.142;17.178;2023-02-28T16:27:37;4.38;;;3.60;;
39970;SDS011;35425;51.142;17.178;2023-02-28T16:30:04;4.70;;;4.10;;
39970;SDS011;35425;51.142;17.178;2023-02-28T16:32:37;4.25;;;3.85;;
39970;SDS011;35425;51.142;17.178;2023-02-28T16:35:05;4.20;;;3.80;;
39970;SDS011;35425;51.142;17.178;2023-02-28T16:37:35;4.63;;;3.70;;
39970;SDS011;35425;51.142;17.178;2023-02-28T16:40:01;5.35;;;4.35;;
39970;SDS011;35425;51.142;17.178;2023-02-28T16:42:28;4.43;;;4.00;;
39970;SDS011;35425;51.142;17.178;2023-02-28T16:44:57;5.50;;;4.28;;
39970;SDS011;35425;51.142;17.178;2023-02-28T16:47:24;4.65;;;4.10;;
39970;SDS011;35425;51.142;17.178;2023-02-28T16:49:52;4.95;;;3.92;;
39970;SDS011;35425;51.142;17.178;2023-02-28T16:52:19;4.82;;;4.32;;
39970;SDS011;35425;51.142;17.178;2023-02-28T16:54:45;4.97;;;4.47;;
39970;SDS011;35425;51.142;17.178;2023-02-28T16:57:17;4.22;;;3.83;;
39970;SDS011;35425;51.142;17.178;2023-02-28T16:59:44;4.75;;;4.25;;
39970;SDS011;35425;51.142;17.178;2023-02-28T17:02:12;4.75;;;4.25;;
39970;SDS011;35425;51.142;17.178;2023-02-28T17:04:39;4.68;;;4.18;;